sensor_id;sensor_type;location;lat;lon;timestamp;P1;durP1;ratioP1;P2;durP2;ratioP2
22646;SDS011;11490;42.726;23.268;2023-08-21T00:01:05;9.43;;;4.50;;
22646;SDS011;11490;42.726;23.268;2023-08-21T00:03:30;7.10;;;4.32;;
22646;SDS011;11490;42.726;23.268;2023-08-21T00:05:56;7.25;;;4.68;;
22646;SDS011;11490;42.726;23.268;2023-08-21T00:08:21;8.23;;;4.80;;
22646;SDS011;11490;42.726;23.268;2023-08-21T00:10:46;7.20;;;4.10;;
22646;SDS011;11490;42.726;23.268;2023-08-21T00:13:13;7.13;;;4.40;;
22646;SDS011;11490;42.726;23.268;2023-08-21T00:15:38;7.97;;;4.15;;
22646;SDS011;11490;42.726;23.268;2023-08-21T00:18:04;8.40;;;4.70;;
22646;SDS011;11490;42.726;23.268;2023-08-21T00:20:30;6.72;;;4.30;;
22646;SDS011;11490;42.726;23.268;2023-08-21T00:22:56;7.97;;;4.18;;
22646;SDS011;11490;42.726;23.268;2023-08-21T00:25:22;7.18;;;4.30;;
22646;SDS011;11490;42.726;23.268;2023-08-21T00:27:47;8.90;;;5.55;;
22646;SDS011;11490;42.726;23.268;2023-08-21T00:30:13;6.43;;;4.78;;
22646;SDS011;11490;42.726;23.268;2023-08-21T00:32:40;7.55;;;4.40;;
22646;SDS011;11490;42.726;23.268;2023-08-21T00:35:06;7.22;;;4.53;;
22646;SDS011;11490;42.726;23.268;2023-08-21T00:37:32;11.00;;;4.57;;
22646;SDS011;11490;42.726;23.268;2023-08-21T00:39:57;9.10;;;4.07;;
22646;SDS011;11490;42.726;23.268;2023-08-21T00:42:22;6.18;;;4.38;;
22646;SDS011;11490;42.726;23.268;2023-08-21T00:44:48;7.70;;;4.55;;
22646;SDS011;11490;42.726;23.268;2023-08-21T00:47:14;6.05;;;3.72;;
22646;SDS011;11490;42.726;23.268;2023-08-21T00:49:39;4.95;;;4.35;;
22646;SDS011;11490;42.726;23.268;2023-08-21T00:52:06;10.18;;;4.50;;
22646;SDS011;11490;42.726;23.268;2023-08-21T00:54:35;6.55;;;4.53;;
22646;SDS011;11490;42.726;23.268;2023-08-21T00:57:01;5.32;;;4.40;;
22646;SDS011;11490;42.726;23.268;2023-08-21T00:59:26;9.10;;;3.80;;
22646;SDS011;11490;42.726;23.268;2023-08-21T01:01:52;6.15;;;4.60;;
22646;SDS011;11490;42.726;23.268;2023-08-21T01:04:17;5.88;;;4.45;;
22646;SDS011;11490;42.726;23.268;2023-08-21T01:06:43;7.22;;;4.65;;
22646;SDS011;11490;42.726;23.268;2023-08-21T01:09:12;5.78;;;4.38;;
22646;SDS011;11490;42.726;23.268;2023-08-21T01:11:59;9.63;;;4.53;;
22646;SDS011;11490;42.726;23.268;2023-08-21T01:17:25;9.93;;;4.97;;
22646;SDS011;11490;42.726;23.268;2023-08-21T01:19:53;8.02;;;4.47;;
22646;SDS011;11490;42.726;23.268;2023-08-21T01:22:20;7.07;;;4.65;;
22646;SDS011;11490;42.726;23.268;2023-08-21T01:24:45;6.82;;;4.20;;
22646;SDS011;11490;42.726;23.268;2023-08-21T01:27:12;9.55;;;5.85;;
22646;SDS011;11490;42.726;23.268;2023-08-21T01:29:41;10.50;;;4.85;;
22646;SDS011;11490;42.726;23.268;2023-08-21T01:34:54;6.35;;;4.30;;
22646;SDS011;11490;42.726;23.268;2023-08-21T01:37:21;7.40;;;4.50;;
22646;SDS011;11490;42.726;23.268;2023-08-21T01:39:47;6.18;;;4.25;;
22646;SDS011;11490;42.726;23.268;2023-08-21T01:42:12;8.65;;;5.30;;
22646;SDS011;11490;42.726;23.268;2023-08-21T01:44:38;5.75;;;4.53;;
22646;SDS011;11490;42.726;23.268;2023-08-21T01:47:03;7.15;;;5.32;;
22646;SDS011;11490;42.726;23.268;2023-08-21T01:49:29;8.48;;;4.53;;
22646;SDS011;11490;42.726;23.268;2023-08-21T01:51:54;8.27;;;5.05;;
22646;SDS011;11490;42.726;23.268;2023-08-21T01:54:20;10.57;;;4.20;;
22646;SDS011;11490;42.726;23.268;2023-08-21T01:56:45;7.88;;;4.72;;
22646;SDS011;11490;42.726;23.268;2023-08-21T01:59:11;8.38;;;5.55;;
22646;SDS011;11490;42.726;23.268;2023-08-21T02:01:36;10.13;;;5.20;;
22646;SDS011;11490;42.726;23.268;2023-08-21T02:04:01;7.68;;;4.95;;
22646;SDS011;11490;42.726;23.268;2023-08-21T02:06:27;7.38;;;5.30;;
22646;SDS011;11490;42.726;23.268;2023-08-21T02:08:52;8.55;;;5.03;;
22646;SDS011;11490;42.726;23.268;2023-08-21T02:11:18;6.47;;;4.65;;
22646;SDS011;11490;42.726;23.268;2023-08-21T02:13:43;8.13;;;4.88;;
22646;SDS011;11490;42.726;23.268;2023-08-21T02:16:15;12.30;;;4.95;;
22646;SDS011;11490;42.726;23.268;2023-08-21T02:18:40;7.90;;;5.70;;
22646;SDS011;11490;42.726;23.268;2023-08-21T02:21:05;8.15;;;4.80;;
22646;SDS011;11490;42.726;23.268;2023-08-21T02:23:31;6.97;;;5.28;;
22646;SDS011;11490;42.726;23.268;2023-08-21T02:25:56;6.93;;;4.88;;
22646;SDS011;11490;42.726;23.268;2023-08-21T02:28:22;7.68;;;5.00;;
22646;SDS011;11490;42.726;23.268;2023-08-21T02:30:47;8.13;;;5.07;;
22646;SDS011;11490;42.726;23.268;2023-08-21T02:33:15;5.53;;;4.00;;
22646;SDS011;11490;42.726;23.268;2023-08-21T02:35:43;7.32;;;4.65;;
22646;SDS011;11490;42.726;23.268;2023-08-21T02:38:09;7.18;;;4.93;;
22646;SDS011;11490;42.726;23.268;2023-08-21T02:40:34;8.80;;;4.50;;
22646;SDS011;11490;42.726;23.268;2023-08-21T02:42:59;7.20;;;4.63;;
22646;SDS011;11490;42.726;23.268;2023-08-21T02:45:25;5.93;;;4.20;;
22646;SDS011;11490;42.726;23.268;2023-08-21T02:47:50;6.82;;;4.93;;
22646;SDS011;11490;42.726;23.268;2023-08-21T02:50:16;9.38;;;4.75;;
22646;SDS011;11490;42.726;23.268;2023-08-21T02:52:41;6.70;;;4.47;;
22646;SDS011;11490;42.726;23.268;2023-08-21T02:55:07;6.80;;;4.95;;
22646;SDS011;11490;42.726;23.268;2023-08-21T02:57:32;7.05;;;4.75;;
22646;SDS011;11490;42.726;23.268;2023-08-21T02:59:58;10.07;;;5.25;;
22646;SDS011;11490;42.726;23.268;2023-08-21T03:02:23;8.38;;;4.80;;
22646;SDS011;11490;42.726;23.268;2023-08-21T03:04:51;7.03;;;4.95;;
22646;SDS011;11490;42.726;23.268;2023-08-21T03:07:16;8.48;;;5.55;;
22646;SDS011;11490;42.726;23.268;2023-08-21T03:09:44;6.38;;;4.93;;
22646;SDS011;11490;42.726;23.268;2023-08-21T03:12:12;8.52;;;5.10;;
22646;SDS011;11490;42.726;23.268;2023-08-21T03:14:37;9.85;;;5.65;;
22646;SDS011;11490;42.726;23.268;2023-08-21T03:17:03;7.68;;;5.40;;
22646;SDS011;11490;42.726;23.268;2023-08-21T03:19:28;6.55;;;4.57;;
22646;SDS011;11490;42.726;23.268;2023-08-21T03:21:54;6.28;;;4.88;;
22646;SDS011;11490;42.726;23.268;2023-08-21T03:24:19;7.85;;;4.80;;
22646;SDS011;11490;42.726;23.268;2023-08-21T03:26:45;8.18;;;5.13;;
22646;SDS011;11490;42.726;23.268;2023-08-21T03:29:10;7.43;;;5.43;;
22646;SDS011;11490;42.726;23.268;2023-08-21T03:31:36;10.20;;;6.18;;
22646;SDS011;11490;42.726;23.268;2023-08-21T03:34:01;8.32;;;5.55;;
22646;SDS011;11490;42.726;23.268;2023-08-21T03:36:27;7.07;;;4.78;;
22646;SDS011;11490;42.726;23.268;2023-08-21T03:38:59;6.38;;;4.25;;
22646;SDS011;11490;42.726;23.268;2023-08-21T03:41:25;8.30;;;5.53;;
22646;SDS011;11490;42.726;23.268;2023-08-21T03:43:50;8.18;;;5.03;;
22646;SDS011;11490;42.726;23.268;2023-08-21T03:46:16;8.00;;;4.78;;
22646;SDS011;11490;42.726;23.268;2023-08-21T03:48:41;8.02;;;4.88;;
22646;SDS011;11490;42.726;23.268;2023-08-21T03:51:07;6.97;;;5.10;;
22646;SDS011;11490;42.726;23.268;2023-08-21T03:53:32;7.28;;;5.25;;
22646;SDS011;11490;42.726;23.268;2023-08-21T03:55:57;11.63;;;5.40;;
22646;SDS011;11490;42.726;23.268;2023-08-21T03:58:23;9.38;;;4.80;;
22646;SDS011;11490;42.726;23.268;2023-08-21T04:00:50;7.47;;;4.82;;
22646;SDS011;11490;42.726;23.268;2023-08-21T04:03:16;7.28;;;5.03;;
22646;SDS011;11490;42.726;23.268;2023-08-21T04:05:41;9.48;;;4.85;;
22646;SDS011;11490;42.726;23.268;2023-08-21T04:08:07;11.88;;;5.78;;
22646;SDS011;11490;42.726;23.268;2023-08-21T04:10:32;6.70;;;5.57;;
22646;SDS011;11490;42.726;23.268;2023-08-21T04:12:58;6.30;;;4.72;;
22646;SDS011;11490;42.726;23.268;2023-08-21T04:15:23;8.45;;;5.25;;
22646;SDS011;11490;42.726;23.268;2023-08-21T04:17:49;9.20;;;5.10;;
22646;SDS011;11490;42.726;23.268;2023-08-21T04:20:14;8.20;;;5.70;;
22646;SDS011;11490;42.726;23.268;2023-08-21T04:22:40;10.00;;;5.00;;
22646;SDS011;11490;42.726;23.268;2023-08-21T04:25:05;7.15;;;4.85;;
22646;SDS011;11490;42.726;23.268;2023-08-21T04:27:32;8.52;;;5.88;;
22646;SDS011;11490;42.726;23.268;2023-08-21T04:29:58;7.32;;;5.45;;
22646;SDS011;11490;42.726;23.268;2023-08-21T04:32:24;8.30;;;5.07;;
22646;SDS011;11490;42.726;23.268;2023-08-21T04:34:50;10.27;;;5.75;;
22646;SDS011;11490;42.726;23.268;2023-08-21T04:37:15;11.23;;;5.65;;
22646;SDS011;11490;42.726;23.268;2023-08-21T04:39:41;7.32;;;4.95;;
22646;SDS011;11490;42.726;23.268;2023-08-21T04:42:06;10.43;;;5.65;;
22646;SDS011;11490;42.726;23.268;2023-08-21T04:44:31;8.77;;;4.43;;
22646;SDS011;11490;42.726;23.268;2023-08-21T04:46:57;12.18;;;5.60;;
22646;SDS011;11490;42.726;23.268;2023-08-21T04:49:22;12.45;;;5.65;;
22646;SDS011;11490;42.726;23.268;2023-08-21T04:51:48;9.13;;;5.47;;
22646;SDS011;11490;42.726;23.268;2023-08-21T04:54:13;9.70;;;4.97;;
22646;SDS011;11490;42.726;23.268;2023-08-21T04:56:38;8.68;;;5.00;;
22646;SDS011;11490;42.726;23.268;2023-08-21T04:59:04;9.30;;;6.25;;
22646;SDS011;11490;42.726;23.268;2023-08-21T05:01:29;15.57;;;5.78;;
22646;SDS011;11490;42.726;23.268;2023-08-21T05:03:55;9.23;;;5.55;;
22646;SDS011;11490;42.726;23.268;2023-08-21T05:06:20;12.38;;;5.43;;
22646;SDS011;11490;42.726;23.268;2023-08-21T05:08:46;7.35;;;5.18;;
22646;SDS011;11490;42.726;23.268;2023-08-21T05:11:11;6.05;;;4.65;;
22646;SDS011;11490;42.726;23.268;2023-08-21T05:13:37;9.93;;;5.63;;
22646;SDS011;11490;42.726;23.268;2023-08-21T05:16:02;8.93;;;4.57;;
22646;SDS011;11490;42.726;23.268;2023-08-21T05:18:28;6.88;;;4.82;;
22646;SDS011;11490;42.726;23.268;2023-08-21T05:20:54;10.63;;;5.13;;
22646;SDS011;11490;42.726;23.268;2023-08-21T05:23:20;12.30;;;5.55;;
22646;SDS011;11490;42.726;23.268;2023-08-21T05:29:24;8.25;;;5.20;;
22646;SDS011;11490;42.726;23.268;2023-08-21T05:31:56;7.05;;;5.15;;
22646;SDS011;11490;42.726;23.268;2023-08-21T05:34:24;10.88;;;5.38;;
22646;SDS011;11490;42.726;23.268;2023-08-21T05:37:17;10.57;;;5.20;;
22646;SDS011;11490;42.726;23.268;2023-08-21T05:43:18;8.45;;;4.25;;
22646;SDS011;11490;42.726;23.268;2023-08-21T05:52:15;8.90;;;5.70;;
22646;SDS011;11490;42.726;23.268;2023-08-21T05:58:10;8.02;;;5.03;;
22646;SDS011;11490;42.726;23.268;2023-08-21T06:00:37;7.40;;;4.53;;
22646;SDS011;11490;42.726;23.268;2023-08-21T06:03:07;7.03;;;4.88;;
22646;SDS011;11490;42.726;23.268;2023-08-21T06:05:32;5.65;;;4.50;;
22646;SDS011;11490;42.726;23.268;2023-08-21T06:07:58;6.65;;;4.90;;
22646;SDS011;11490;42.726;23.268;2023-08-21T06:10:23;9.93;;;5.05;;
22646;SDS011;11490;42.726;23.268;2023-08-21T06:12:48;6.97;;;4.28;;
22646;SDS011;11490;42.726;23.268;2023-08-21T06:15:15;9.38;;;5.22;;
22646;SDS011;11490;42.726;23.268;2023-08-21T06:17:40;7.07;;;4.65;;
22646;SDS011;11490;42.726;23.268;2023-08-21T06:20:07;7.57;;;4.57;;
22646;SDS011;11490;42.726;23.268;2023-08-21T06:22:36;5.85;;;4.18;;
22646;SDS011;11490;42.726;23.268;2023-08-21T06:25:02;7.03;;;5.15;;
22646;SDS011;11490;42.726;23.268;2023-08-21T06:27:27;6.35;;;4.57;;
22646;SDS011;11490;42.726;23.268;2023-08-21T06:29:53;7.85;;;4.13;;
22646;SDS011;11490;42.726;23.268;2023-08-21T06:32:18;12.30;;;5.13;;
22646;SDS011;11490;42.726;23.268;2023-08-21T06:34:44;8.57;;;4.07;;
22646;SDS011;11490;42.726;23.268;2023-08-21T06:37:09;7.28;;;4.05;;
22646;SDS011;11490;42.726;23.268;2023-08-21T06:39:34;7.45;;;4.57;;
22646;SDS011;11490;42.726;23.268;2023-08-21T06:42:00;7.93;;;4.47;;
22646;SDS011;11490;42.726;23.268;2023-08-21T06:44:26;7.90;;;5.32;;
22646;SDS011;11490;42.726;23.268;2023-08-21T06:46:51;11.25;;;3.78;;
22646;SDS011;11490;42.726;23.268;2023-08-21T06:49:17;6.45;;;4.35;;
22646;SDS011;11490;42.726;23.268;2023-08-21T06:51:42;6.15;;;4.30;;
22646;SDS011;11490;42.726;23.268;2023-08-21T06:54:08;7.13;;;4.13;;
22646;SDS011;11490;42.726;23.268;2023-08-21T06:56:33;6.30;;;4.65;;
22646;SDS011;11490;42.726;23.268;2023-08-21T06:58:59;10.23;;;3.70;;
22646;SDS011;11490;42.726;23.268;2023-08-21T07:01:24;7.70;;;4.22;;
22646;SDS011;11490;42.726;23.268;2023-08-21T07:03:50;5.55;;;4.13;;
22646;SDS011;11490;42.726;23.268;2023-08-21T07:06:15;5.68;;;3.83;;
22646;SDS011;11490;42.726;23.268;2023-08-21T07:08:41;14.95;;;4.18;;
22646;SDS011;11490;42.726;23.268;2023-08-21T07:11:07;5.25;;;3.53;;
22646;SDS011;11490;42.726;23.268;2023-08-21T07:13:37;5.15;;;3.67;;
22646;SDS011;11490;42.726;23.268;2023-08-21T07:16:03;6.45;;;3.80;;
22646;SDS011;11490;42.726;23.268;2023-08-21T07:18:31;6.07;;;3.40;;
22646;SDS011;11490;42.726;23.268;2023-08-21T07:20:58;6.57;;;4.10;;
22646;SDS011;11490;42.726;23.268;2023-08-21T07:23:24;9.13;;;4.32;;
22646;SDS011;11490;42.726;23.268;2023-08-21T07:25:49;9.65;;;4.20;;
22646;SDS011;11490;42.726;23.268;2023-08-21T07:28:21;9.95;;;3.65;;
22646;SDS011;11490;42.726;23.268;2023-08-21T07:42:52;7.57;;;3.70;;
22646;SDS011;11490;42.726;23.268;2023-08-21T07:45:23;5.53;;;3.92;;
22646;SDS011;11490;42.726;23.268;2023-08-21T07:48:01;3.83;;;3.08;;
22646;SDS011;11490;42.726;23.268;2023-08-21T07:50:27;5.80;;;3.15;;
22646;SDS011;11490;42.726;23.268;2023-08-21T07:52:52;7.43;;;3.83;;
22646;SDS011;11490;42.726;23.268;2023-08-21T07:55:18;5.95;;;3.78;;
22646;SDS011;11490;42.726;23.268;2023-08-21T07:57:43;7.97;;;3.58;;
22646;SDS011;11490;42.726;23.268;2023-08-21T08:00:12;6.88;;;4.05;;
22646;SDS011;11490;42.726;23.268;2023-08-21T08:02:38;10.90;;;3.60;;
22646;SDS011;11490;42.726;23.268;2023-08-21T08:05:06;5.72;;;3.78;;
22646;SDS011;11490;42.726;23.268;2023-08-21T08:07:40;6.18;;;3.33;;
22646;SDS011;11490;42.726;23.268;2023-08-21T08:10:20;5.47;;;3.72;;
22646;SDS011;11490;42.726;23.268;2023-08-21T08:13:10;7.03;;;3.67;;
22646;SDS011;11490;42.726;23.268;2023-08-21T08:15:41;4.78;;;3.42;;
22646;SDS011;11490;42.726;23.268;2023-08-21T08:18:41;4.47;;;3.15;;
22646;SDS011;11490;42.726;23.268;2023-08-21T08:21:07;8.35;;;3.78;;
22646;SDS011;11490;42.726;23.268;2023-08-21T08:23:32;5.57;;;3.47;;
22646;SDS011;11490;42.726;23.268;2023-08-21T08:25:57;4.85;;;3.10;;
22646;SDS011;11490;42.726;23.268;2023-08-21T08:28:23;5.57;;;3.47;;
22646;SDS011;11490;42.726;23.268;2023-08-21T08:30:50;5.63;;;2.92;;
22646;SDS011;11490;42.726;23.268;2023-08-21T08:33:15;6.88;;;3.67;;
22646;SDS011;11490;42.726;23.268;2023-08-21T08:36:01;4.60;;;3.10;;
22646;SDS011;11490;42.726;23.268;2023-08-21T08:38:39;6.43;;;3.53;;
22646;SDS011;11490;42.726;23.268;2023-08-21T08:41:24;5.95;;;3.85;;
22646;SDS011;11490;42.726;23.268;2023-08-21T08:44:06;7.68;;;3.45;;
22646;SDS011;11490;42.726;23.268;2023-08-21T08:46:37;5.22;;;3.50;;
22646;SDS011;11490;42.726;23.268;2023-08-21T08:49:03;7.15;;;3.25;;
22646;SDS011;11490;42.726;23.268;2023-08-21T08:57:10;8.73;;;3.67;;
22646;SDS011;11490;42.726;23.268;2023-08-21T09:02:48;7.68;;;3.13;;
22646;SDS011;11490;42.726;23.268;2023-08-21T09:09:00;4.93;;;3.47;;
22646;SDS011;11490;42.726;23.268;2023-08-21T09:11:26;4.68;;;3.38;;
22646;SDS011;11490;42.726;23.268;2023-08-21T09:14:09;5.97;;;3.53;;
22646;SDS011;11490;42.726;23.268;2023-08-21T09:23:05;4.93;;;2.78;;
22646;SDS011;11490;42.726;23.268;2023-08-21T09:29:17;5.50;;;3.42;;
22646;SDS011;11490;42.726;23.268;2023-08-21T09:32:26;4.72;;;2.88;;
22646;SDS011;11490;42.726;23.268;2023-08-21T09:38:11;5.88;;;2.95;;
22646;SDS011;11490;42.726;23.268;2023-08-21T09:40:43;6.35;;;3.40;;
22646;SDS011;11490;42.726;23.268;2023-08-21T09:46:57;5.68;;;3.42;;
22646;SDS011;11490;42.726;23.268;2023-08-21T09:49:22;6.00;;;3.63;;
22646;SDS011;11490;42.726;23.268;2023-08-21T09:51:48;5.32;;;3.10;;
22646;SDS011;11490;42.726;23.268;2023-08-21T09:54:18;5.63;;;3.92;;
22646;SDS011;11490;42.726;23.268;2023-08-21T09:56:58;6.05;;;3.45;;
22646;SDS011;11490;42.726;23.268;2023-08-21T09:59:27;5.32;;;3.28;;
22646;SDS011;11490;42.726;23.268;2023-08-21T10:02:23;5.75;;;3.03;;
22646;SDS011;11490;42.726;23.268;2023-08-21T10:05:24;5.80;;;3.08;;
22646;SDS011;11490;42.726;23.268;2023-08-21T10:08:05;5.72;;;3.50;;
22646;SDS011;11490;42.726;23.268;2023-08-21T10:10:53;9.25;;;3.15;;
22646;SDS011;11490;42.726;23.268;2023-08-21T10:16:39;7.60;;;3.55;;
22646;SDS011;11490;42.726;23.268;2023-08-21T10:19:07;4.25;;;3.13;;
22646;SDS011;11490;42.726;23.268;2023-08-21T10:21:48;5.63;;;3.22;;
22646;SDS011;11490;42.726;23.268;2023-08-21T10:24:33;4.68;;;3.38;;
22646;SDS011;11490;42.726;23.268;2023-08-21T10:30:54;4.10;;;2.85;;
22646;SDS011;11490;42.726;23.268;2023-08-21T10:33:45;6.32;;;4.15;;
22646;SDS011;11490;42.726;23.268;2023-08-21T10:36:23;6.03;;;2.80;;
22646;SDS011;11490;42.726;23.268;2023-08-21T10:39:18;3.95;;;2.72;;
22646;SDS011;11490;42.726;23.268;2023-08-21T10:42:13;4.93;;;2.72;;
22646;SDS011;11490;42.726;23.268;2023-08-21T10:48:32;4.75;;;3.13;;
22646;SDS011;11490;42.726;23.268;2023-08-21T10:51:04;5.43;;;3.90;;
22646;SDS011;11490;42.726;23.268;2023-08-21T10:53:34;4.80;;;3.00;;
22646;SDS011;11490;42.726;23.268;2023-08-21T10:56:31;8.57;;;3.33;;
22646;SDS011;11490;42.726;23.268;2023-08-21T10:59:43;4.95;;;2.80;;
22646;SDS011;11490;42.726;23.268;2023-08-21T11:02:45;5.68;;;3.20;;
22646;SDS011;11490;42.726;23.268;2023-08-21T11:05:15;5.28;;;3.05;;
22646;SDS011;11490;42.726;23.268;2023-08-21T11:07:44;4.72;;;3.22;;
22646;SDS011;11490;42.726;23.268;2023-08-21T11:10:37;4.03;;;2.45;;
22646;SDS011;11490;42.726;23.268;2023-08-21T11:13:38;5.65;;;2.67;;
22646;SDS011;11490;42.726;23.268;2023-08-21T11:16:28;5.50;;;2.95;;
22646;SDS011;11490;42.726;23.268;2023-08-21T11:18:56;4.50;;;3.05;;
22646;SDS011;11490;42.726;23.268;2023-08-21T11:21:22;5.90;;;3.65;;
22646;SDS011;11490;42.726;23.268;2023-08-21T11:23:48;5.00;;;2.85;;
22646;SDS011;11490;42.726;23.268;2023-08-21T11:26:13;5.25;;;2.80;;
22646;SDS011;11490;42.726;23.268;2023-08-21T11:29:02;4.80;;;2.88;;
22646;SDS011;11490;42.726;23.268;2023-08-21T11:31:30;4.63;;;3.42;;
22646;SDS011;11490;42.726;23.268;2023-08-21T11:33:55;5.90;;;3.63;;
22646;SDS011;11490;42.726;23.268;2023-08-21T11:36:24;4.53;;;3.00;;
22646;SDS011;11490;42.726;23.268;2023-08-21T11:38:59;6.35;;;2.97;;
22646;SDS011;11490;42.726;23.268;2023-08-21T11:41:55;4.68;;;2.85;;
22646;SDS011;11490;42.726;23.268;2023-08-21T11:44:30;3.88;;;2.70;;
22646;SDS011;11490;42.726;23.268;2023-08-21T11:46:59;4.40;;;2.97;;
22646;SDS011;11490;42.726;23.268;2023-08-21T11:49:28;5.72;;;2.97;;
22646;SDS011;11490;42.726;23.268;2023-08-21T11:51:54;6.95;;;3.60;;
22646;SDS011;11490;42.726;23.268;2023-08-21T11:54:26;4.53;;;3.05;;
22646;SDS011;11490;42.726;23.268;2023-08-21T11:56:57;3.92;;;2.65;;
22646;SDS011;11490;42.726;23.268;2023-08-21T11:59:23;5.70;;;3.20;;
22646;SDS011;11490;42.726;23.268;2023-08-21T12:01:51;6.15;;;3.08;;
22646;SDS011;11490;42.726;23.268;2023-08-21T12:04:19;4.50;;;2.80;;
22646;SDS011;11490;42.726;23.268;2023-08-21T12:06:56;7.82;;;4.07;;
22646;SDS011;11490;42.726;23.268;2023-08-21T12:09:30;4.20;;;2.72;;
22646;SDS011;11490;42.726;23.268;2023-08-21T12:12:01;6.25;;;3.08;;
22646;SDS011;11490;42.726;23.268;2023-08-21T12:14:27;12.10;;;3.80;;
22646;SDS011;11490;42.726;23.268;2023-08-21T12:17:07;5.65;;;3.05;;
22646;SDS011;11490;42.726;23.268;2023-08-21T12:19:32;4.25;;;2.97;;
22646;SDS011;11490;42.726;23.268;2023-08-21T12:21:58;3.97;;;3.22;;
22646;SDS011;11490;42.726;23.268;2023-08-21T12:24:24;5.13;;;3.40;;
22646;SDS011;11490;42.726;23.268;2023-08-21T12:26:52;7.40;;;3.13;;
22646;SDS011;11490;42.726;23.268;2023-08-21T12:29:46;6.13;;;3.38;;
22646;SDS011;11490;42.726;23.268;2023-08-21T12:32:12;5.00;;;2.75;;
22646;SDS011;11490;42.726;23.268;2023-08-21T12:34:55;5.15;;;3.05;;
22646;SDS011;11490;42.726;23.268;2023-08-21T12:37:27;4.40;;;3.15;;
22646;SDS011;11490;42.726;23.268;2023-08-21T12:39:53;6.93;;;3.10;;
22646;SDS011;11490;42.726;23.268;2023-08-21T12:42:18;4.43;;;3.30;;
22646;SDS011;11490;42.726;23.268;2023-08-21T12:44:44;4.43;;;3.25;;
22646;SDS011;11490;42.726;23.268;2023-08-21T12:47:09;4.65;;;3.05;;
22646;SDS011;11490;42.726;23.268;2023-08-21T12:49:35;5.60;;;3.00;;
22646;SDS011;11490;42.726;23.268;2023-08-21T12:52:06;4.03;;;2.88;;
22646;SDS011;11490;42.726;23.268;2023-08-21T12:54:38;4.25;;;2.88;;
22646;SDS011;11490;42.726;23.268;2023-08-21T12:57:04;4.30;;;2.88;;
22646;SDS011;11490;42.726;23.268;2023-08-21T12:59:30;4.47;;;3.15;;
22646;SDS011;11490;42.726;23.268;2023-08-21T13:01:58;3.53;;;2.38;;
22646;SDS011;11490;42.726;23.268;2023-08-21T13:04:25;4.78;;;3.15;;
22646;SDS011;11490;42.726;23.268;2023-08-21T13:06:51;9.75;;;4.10;;
22646;SDS011;11490;42.726;23.268;2023-08-21T13:09:16;5.53;;;2.83;;
22646;SDS011;11490;42.726;23.268;2023-08-21T13:11:41;4.75;;;2.78;;
22646;SDS011;11490;42.726;23.268;2023-08-21T13:14:07;6.70;;;3.17;;
22646;SDS011;11490;42.726;23.268;2023-08-21T13:16:32;5.97;;;3.47;;
22646;SDS011;11490;42.726;23.268;2023-08-21T13:18:58;4.13;;;2.90;;
22646;SDS011;11490;42.726;23.268;2023-08-21T13:21:23;7.15;;;3.10;;
22646;SDS011;11490;42.726;23.268;2023-08-21T13:23:49;5.93;;;2.33;;
22646;SDS011;11490;42.726;23.268;2023-08-21T13:26:14;4.35;;;2.97;;
22646;SDS011;11490;42.726;23.268;2023-08-21T13:28:40;7.05;;;3.60;;
22646;SDS011;11490;42.726;23.268;2023-08-21T13:31:05;4.57;;;2.65;;
22646;SDS011;11490;42.726;23.268;2023-08-21T13:33:32;5.38;;;2.50;;
22646;SDS011;11490;42.726;23.268;2023-08-21T13:36:09;5.10;;;3.22;;
22646;SDS011;11490;42.726;23.268;2023-08-21T13:38:35;5.85;;;3.25;;
22646;SDS011;11490;42.726;23.268;2023-08-21T13:41:00;3.72;;;2.75;;
22646;SDS011;11490;42.726;23.268;2023-08-21T13:43:25;6.75;;;3.00;;
22646;SDS011;11490;42.726;23.268;2023-08-21T13:45:51;6.25;;;2.65;;
22646;SDS011;11490;42.726;23.268;2023-08-21T13:48:16;4.57;;;3.10;;
22646;SDS011;11490;42.726;23.268;2023-08-21T13:50:42;4.65;;;3.20;;
22646;SDS011;11490;42.726;23.268;2023-08-21T13:53:08;4.05;;;2.78;;
22646;SDS011;11490;42.726;23.268;2023-08-21T13:55:33;4.10;;;2.92;;
22646;SDS011;11490;42.726;23.268;2023-08-21T13:57:59;4.13;;;2.80;;
22646;SDS011;11490;42.726;23.268;2023-08-21T14:00:24;4.88;;;2.80;;
22646;SDS011;11490;42.726;23.268;2023-08-21T14:02:50;4.03;;;2.78;;
22646;SDS011;11490;42.726;23.268;2023-08-21T14:05:15;4.35;;;3.05;;
22646;SDS011;11490;42.726;23.268;2023-08-21T14:07:41;4.43;;;3.15;;
22646;SDS011;11490;42.726;23.268;2023-08-21T14:10:06;6.30;;;3.08;;
22646;SDS011;11490;42.726;23.268;2023-08-21T14:12:32;5.72;;;2.70;;
22646;SDS011;11490;42.726;23.268;2023-08-21T14:14:58;4.32;;;3.13;;
22646;SDS011;11490;42.726;23.268;2023-08-21T14:17:27;3.72;;;2.72;;
22646;SDS011;11490;42.726;23.268;2023-08-21T14:19:53;6.78;;;3.20;;
22646;SDS011;11490;42.726;23.268;2023-08-21T14:22:18;4.65;;;3.40;;
22646;SDS011;11490;42.726;23.268;2023-08-21T14:24:44;4.88;;;3.17;;
22646;SDS011;11490;42.726;23.268;2023-08-21T14:27:09;5.10;;;3.03;;
22646;SDS011;11490;42.726;23.268;2023-08-21T14:29:35;5.13;;;3.50;;
22646;SDS011;11490;42.726;23.268;2023-08-21T14:32:00;4.88;;;3.15;;
22646;SDS011;11490;42.726;23.268;2023-08-21T14:34:30;9.88;;;3.15;;
22646;SDS011;11490;42.726;23.268;2023-08-21T14:36:58;5.28;;;2.90;;
22646;SDS011;11490;42.726;23.268;2023-08-21T14:39:24;5.38;;;2.95;;
22646;SDS011;11490;42.726;23.268;2023-08-21T14:41:54;6.38;;;3.20;;
22646;SDS011;11490;42.726;23.268;2023-08-21T14:44:21;8.63;;;3.50;;
22646;SDS011;11490;42.726;23.268;2023-08-21T14:46:46;3.97;;;2.85;;
22646;SDS011;11490;42.726;23.268;2023-08-21T14:49:12;4.25;;;3.00;;
22646;SDS011;11490;42.726;23.268;2023-08-21T14:51:38;5.07;;;3.50;;
22646;SDS011;11490;42.726;23.268;2023-08-21T14:54:04;3.95;;;2.90;;
22646;SDS011;11490;42.726;23.268;2023-08-21T14:56:30;6.00;;;3.15;;
22646;SDS011;11490;42.726;23.268;2023-08-21T14:58:56;4.18;;;3.00;;
22646;SDS011;11490;42.726;23.268;2023-08-21T15:01:21;5.72;;;3.60;;
22646;SDS011;11490;42.726;23.268;2023-08-21T15:03:56;6.15;;;3.53;;
22646;SDS011;11490;42.726;23.268;2023-08-21T15:06:22;4.22;;;2.88;;
22646;SDS011;11490;42.726;23.268;2023-08-21T15:08:52;5.43;;;3.90;;
22646;SDS011;11490;42.726;23.268;2023-08-21T15:11:27;5.57;;;3.60;;
22646;SDS011;11490;42.726;23.268;2023-08-21T15:14:09;5.97;;;3.13;;
22646;SDS011;11490;42.726;23.268;2023-08-21T15:16:38;5.15;;;3.30;;
22646;SDS011;11490;42.726;23.268;2023-08-21T15:19:06;4.80;;;2.70;;
22646;SDS011;11490;42.726;23.268;2023-08-21T15:21:31;5.38;;;3.17;;
22646;SDS011;11490;42.726;23.268;2023-08-21T15:23:57;6.38;;;3.60;;
22646;SDS011;11490;42.726;23.268;2023-08-21T15:26:25;5.40;;;3.95;;
22646;SDS011;11490;42.726;23.268;2023-08-21T15:28:51;5.30;;;3.83;;
22646;SDS011;11490;42.726;23.268;2023-08-21T15:31:16;5.82;;;3.17;;
22646;SDS011;11490;42.726;23.268;2023-08-21T15:33:42;4.28;;;2.70;;
22646;SDS011;11490;42.726;23.268;2023-08-21T15:36:07;8.13;;;3.88;;
22646;SDS011;11490;42.726;23.268;2023-08-21T15:38:35;6.47;;;3.80;;
22646;SDS011;11490;42.726;23.268;2023-08-21T15:41:01;4.95;;;3.50;;
22646;SDS011;11490;42.726;23.268;2023-08-21T15:43:26;4.28;;;2.97;;
22646;SDS011;11490;42.726;23.268;2023-08-21T15:45:51;5.07;;;3.30;;
22646;SDS011;11490;42.726;23.268;2023-08-21T15:48:17;6.78;;;3.38;;
22646;SDS011;11490;42.726;23.268;2023-08-21T15:50:43;4.57;;;3.28;;
22646;SDS011;11490;42.726;23.268;2023-08-21T15:53:09;4.68;;;3.40;;
22646;SDS011;11490;42.726;23.268;2023-08-21T15:55:34;6.03;;;3.22;;
22646;SDS011;11490;42.726;23.268;2023-08-21T15:57:59;5.22;;;4.03;;